sensor_id;sensor_type;location;lat;lon;timestamp;pressure;altitude;pressure_sealevel;temperature;humidity
13604;BME280;24578;48.264;11.436;2023-03-25T00:00:31;95633.56;;;7.38;100.00
13604;BME280;24578;48.264;11.436;2023-03-25T00:03:53;95639.84;;;7.34;100.00
13604;BME280;24578;48.264;11.436;2023-03-25T00:07:15;95637.19;;;7.22;100.00
13604;BME280;24578;48.264;11.436;2023-03-25T00:10:39;95632.97;;;7.21;100.00
13604;BME280;24578;48.264;11.436;2023-03-25T00:14:00;95630.38;;;7.21;100.00
13604;BME280;24578;48.264;11.436;2023-03-25T00:17:24;95626.06;;;7.22;100.00
13604;BME280;24578;48.264;11.436;2023-03-25T00:20:52;95623.28;;;7.12;100.00
13604;BME280;24578;48.264;11.436;2023-03-25T00:24:14;95632.75;;;7.11;100.00
13604;BME280;24578;48.264;11.436;2023-03-25T00:27:38;95620.41;;;7.04;100.00
13604;BME280;24578;48.264;11.436;2023-03-25T00:31:05;95624.44;;;7.08;100.00
13604;BME280;24578;48.264;11.436;2023-03-25T00:34:27;95628.63;;;7.09;100.00
13604;BME280;24578;48.264;11.436;2023-03-25T00:37:50;95615.69;;;7.10;100.00
13604;BME280;24578;48.264;11.436;2023-03-25T00:41:23;95619.16;;;7.22;100.00
13604;BME280;24578;48.264;11.436;2023-03-25T00:44:48;95618.31;;;7.35;100.00
13604;BME280;24578;48.264;11.436;2023-03-25T00:48:10;95619.75;;;7.39;100.00
13604;BME280;24578;48.264;11.436;2023-03-25T00:51:31;95611.84;;;7.29;100.00
13604;BME280;24578;48.264;11.436;2023-03-25T00:54:54;95614.16;;;7.45;100.00
13604;BME280;24578;48.264;11.436;2023-03-25T00:58:15;95614.22;;;7.56;100.00
13604;BME280;24578;48.264;11.436;2023-03-25T01:01:37;95605.47;;;7.59;100.00
13604;BME280;24578;48.264;11.436;2023-03-25T01:05:00;95600.03;;;7.51;100.00
13604;BME280;24578;48.264;11.436;2023-03-25T01:08:22;95598.00;;;7.43;100.00
13604;BME280;24578;48.264;11.436;2023-03-25T01:11:47;95593.88;;;7.53;100.00
13604;BME280;24578;48.264;11.436;2023-03-25T01:15:10;95591.34;;;7.65;100.00
13604;BME280;24578;48.264;11.436;2023-03-25T01:18:31;95584.94;;;7.70;100.00
13604;BME280;24578;48.264;11.436;2023-03-25T01:21:55;95588.41;;;7.82;100.00
13604;BME280;24578;48.264;11.436;2023-03-25T01:25:17;95597.59;;;7.98;100.00
13604;BME280;24578;48.264;11.436;2023-03-25T01:28:41;95588.44;;;7.93;100.00
13604;BME280;24578;48.264;11.436;2023-03-25T01:32:03;95588.81;;;8.00;100.00
13604;BME280;24578;48.264;11.436;2023-03-25T01:35:25;95589.56;;;8.14;100.00
13604;BME280;24578;48.264;11.436;2023-03-25T01:38:46;95597.22;;;8.15;100.00
13604;BME280;24578;48.264;11.436;2023-03-25T01:42:11;95602.53;;;8.01;100.00
13604;BME280;24578;48.264;11.436;2023-03-25T01:45:32;95600.81;;;8.13;100.00
13604;BME280;24578;48.264;11.436;2023-03-25T01:48:55;95590.47;;;8.01;100.00
13604;BME280;24578;48.264;11.436;2023-03-25T01:52:23;95597.44;;;8.12;100.00
13604;BME280;24578;48.264;11.436;2023-03-25T01:55:48;95590.13;;;8.06;100.00
13604;BME280;24578;48.264;11.436;2023-03-25T01:59:17;95584.38;;;8.02;100.00
13604;BME280;24578;48.264;11.436;2023-03-25T02:02:42;95579.78;;;7.95;100.00
13604;BME280;24578;48.264;11.436;2023-03-25T02:06:14;95586.44;;;8.21;100.00
13604;BME280;24578;48.264;11.436;2023-03-25T02:09:38;95569.66;;;8.16;100.00
13604;BME280;24578;48.264;11.436;2023-03-25T02:13:01;95574.25;;;8.23;100.00
13604;BME280;24578;48.264;11.436;2023-03-25T02:20:22;95568.84;;;8.15;100.00
13604;BME280;24578;48.264;11.436;2023-03-25T02:39:21;95579.19;;;7.67;100.00
13604;BME280;24578;48.264;11.436;2023-03-25T02:42:52;95578.84;;;7.47;100.00
13604;BME280;24578;48.264;11.436;2023-03-25T02:46:17;95579.75;;;7.46;100.00
13604;BME280;24578;48.264;11.436;2023-03-25T02:49:45;95595.22;;;7.46;100.00
13604;BME280;24578;48.264;11.436;2023-03-25T02:53:14;95598.19;;;7.40;100.00
13604;BME280;24578;48.264;11.436;2023-03-25T02:56:40;95596.84;;;7.47;100.00
13604;BME280;24578;48.264;11.436;2023-03-25T03:00:06;95584.91;;;7.46;100.00
13604;BME280;24578;48.264;11.436;2023-03-25T03:03:35;95584.09;;;7.45;100.00
13604;BME280;24578;48.264;11.436;2023-03-25T03:06:57;95572.38;;;7.41;100.00
13604;BME280;24578;48.264;11.436;2023-03-25T03:10:24;95578.44;;;7.40;100.00
13604;BME280;24578;48.264;11.436;2023-03-25T03:20:56;95566.38;;;7.04;100.00
13604;BME280;24578;48.264;11.436;2023-03-25T03:24:30;95580.06;;;7.04;100.00
13604;BME280;24578;48.264;11.436;2023-03-25T03:28:02;95594.16;;;6.98;100.00
13604;BME280;24578;48.264;11.436;2023-03-25T03:31:41;95584.19;;;6.81;100.00
13604;BME280;24578;48.264;11.436;2023-03-25T03:35:12;95603.56;;;6.74;100.00
13604;BME280;24578;48.264;11.436;2023-03-25T03:38:42;95611.34;;;6.72;100.00
13604;BME280;24578;48.264;11.436;2023-03-25T03:45:47;95603.53;;;6.61;100.00
13604;BME280;24578;48.264;11.436;2023-03-25T03:49:16;95604.97;;;6.52;100.00
13604;BME280;24578;48.264;11.436;2023-03-25T03:52:53;95603.09;;;6.41;100.00
13604;BME280;24578;48.264;11.436;2023-03-25T03:56:39;95586.13;;;6.38;100.00
13604;BME280;24578;48.264;11.436;2023-03-25T04:00:26;95596.13;;;6.30;100.00
13604;BME280;24578;48.264;11.436;2023-03-25T04:03:57;95593.47;;;6.45;100.00
13604;BME280;24578;48.264;11.436;2023-03-25T04:07:33;95585.31;;;6.38;100.00
13604;BME280;24578;48.264;11.436;2023-03-25T04:11:09;95597.69;;;6.46;100.00
13604;BME280;24578;48.264;11.436;2023-03-25T04:14:32;95595.53;;;6.52;100.00
13604;BME280;24578;48.264;11.436;2023-03-25T04:17:54;95605.78;;;6.65;100.00
13604;BME280;24578;48.264;11.436;2023-03-25T04:21:16;95606.63;;;6.53;100.00
13604;BME280;24578;48.264;11.436;2023-03-25T04:24:38;95614.63;;;6.48;100.00
13604;BME280;24578;48.264;11.436;2023-03-25T04:28:02;95618.97;;;6.61;100.00
13604;BME280;24578;48.264;11.436;2023-03-25T04:31:23;95623.38;;;6.59;100.00
13604;BME280;24578;48.264;11.436;2023-03-25T04:34:46;95624.94;;;6.61;100.00
13604;BME280;24578;48.264;11.436;2023-03-25T04:38:08;95618.94;;;6.48;100.00
13604;BME280;24578;48.264;11.436;2023-03-25T04:41:30;95627.72;;;6.58;100.00
13604;BME280;24578;48.264;11.436;2023-03-25T04:44:52;95615.66;;;6.59;100.00
13604;BME280;24578;48.264;11.436;2023-03-25T04:48:22;95625.16;;;6.58;100.00
13604;BME280;24578;48.264;11.436;2023-03-25T04:51:51;95617.94;;;6.63;100.00
13604;BME280;24578;48.264;11.436;2023-03-25T04:55:13;95612.59;;;6.66;100.00
13604;BME280;24578;48.264;11.436;2023-03-25T04:58:42;95617.94;;;6.76;100.00
13604;BME280;24578;48.264;11.436;2023-03-25T05:02:05;95607.47;;;6.79;100.00
13604;BME280;24578;48.264;11.436;2023-03-25T05:05:27;95605.50;;;6.83;100.00
13604;BME280;24578;48.264;11.436;2023-03-25T05:08:49;95587.81;;;6.91;100.00
13604;BME280;24578;48.264;11.436;2023-03-25T05:12:11;95592.03;;;6.92;100.00
13604;BME280;24578;48.264;11.436;2023-03-25T05:15:35;95599.63;;;6.94;100.00
13604;BME280;24578;48.264;11.436;2023-03-25T05:19:00;95605.06;;;7.15;100.00
13604;BME280;24578;48.264;11.436;2023-03-25T05:22:24;95604.22;;;7.27;100.00
13604;BME280;24578;48.264;11.436;2023-03-25T05:25:47;95615.53;;;7.38;100.00
13604;BME280;24578;48.264;11.436;2023-03-25T05:29:13;95614.38;;;7.42;100.00
13604;BME280;24578;48.264;11.436;2023-03-25T05:32:34;95612.31;;;7.47;100.00
13604;BME280;24578;48.264;11.436;2023-03-25T05:35:57;95620.75;;;7.49;100.00
13604;BME280;24578;48.264;11.436;2023-03-25T05:39:19;95612.31;;;7.47;100.00
13604;BME280;24578;48.264;11.436;2023-03-25T05:42:41;95615.59;;;7.49;100.00
13604;BME280;24578;48.264;11.436;2023-03-25T05:46:07;95634.34;;;7.51;100.00
13604;BME280;24578;48.264;11.436;2023-03-25T05:49:29;95638.06;;;7.47;100.00
13604;BME280;24578;48.264;11.436;2023-03-25T05:52:50;95643.03;;;7.37;100.00
13604;BME280;24578;48.264;11.436;2023-03-25T05:56:12;95637.69;;;7.27;100.00
13604;BME280;24578;48.264;11.436;2023-03-25T05:59:35;95638.72;;;7.38;100.00
13604;BME280;24578;48.264;11.436;2023-03-25T06:02:59;95658.88;;;7.44;100.00
13604;BME280;24578;48.264;11.436;2023-03-25T06:06:21;95660.31;;;7.35;100.00
13604;BME280;24578;48.264;11.436;2023-03-25T06:09:46;95653.22;;;7.39;100.00
13604;BME280;24578;48.264;11.436;2023-03-25T06:13:08;95669.09;;;7.32;100.00
13604;BME280;24578;48.264;11.436;2023-03-25T06:16:30;95670.81;;;7.45;100.00
13604;BME280;24578;48.264;11.436;2023-03-25T06:19:53;95678.22;;;7.62;100.00
13604;BME280;24578;48.264;11.436;2023-03-25T06:23:15;95677.81;;;7.56;100.00
13604;BME280;24578;48.264;11.436;2023-03-25T06:26:37;95683.16;;;7.66;100.00
13604;BME280;24578;48.264;11.436;2023-03-25T06:30:00;95692.19;;;7.71;100.00
13604;BME280;24578;48.264;11.436;2023-03-25T06:33:22;95687.97;;;7.83;100.00
13604;BME280;24578;48.264;11.436;2023-03-25T06:36:44;95683.94;;;7.79;100.00
13604;BME280;24578;48.264;11.436;2023-03-25T06:40:06;95693.47;;;7.66;100.00
13604;BME280;24578;48.264;11.436;2023-03-25T06:43:28;95694.38;;;7.65;100.00
13604;BME280;24578;48.264;11.436;2023-03-25T06:46:50;95690.94;;;7.77;100.00
13604;BME280;24578;48.264;11.436;2023-03-25T06:50:12;95695.09;;;7.67;100.00
13604;BME280;24578;48.264;11.436;2023-03-25T06:53:34;95684.88;;;7.78;100.00
13604;BME280;24578;48.264;11.436;2023-03-25T06:56:56;95685.06;;;7.88;100.00
13604;BME280;24578;48.264;11.436;2023-03-25T07:00:17;95696.44;;;7.72;100.00
13604;BME280;24578;48.264;11.436;2023-03-25T07:03:43;95705.06;;;7.84;100.00
13604;BME280;24578;48.264;11.436;2023-03-25T07:07:07;95702.03;;;7.90;100.00
13604;BME280;24578;48.264;11.436;2023-03-25T07:10:29;95708.38;;;8.11;100.00
13604;BME280;24578;48.264;11.436;2023-03-25T07:13:51;95713.84;;;8.06;100.00
13604;BME280;24578;48.264;11.436;2023-03-25T07:17:14;95730.94;;;8.93;100.00
13604;BME280;24578;48.264;11.436;2023-03-25T07:20:36;95738.25;;;10.68;99.47
13604;BME280;24578;48.264;11.436;2023-03-25T07:23:58;95731.78;;;12.99;78.94
13604;BME280;24578;48.264;11.436;2023-03-25T07:27:20;95724.44;;;13.52;69.13
13604;BME280;24578;48.264;11.436;2023-03-25T07:30:42;95717.22;;;14.29;61.67
13604;BME280;24578;48.264;11.436;2023-03-25T07:34:04;95731.56;;;12.22;65.20
13604;BME280;24578;48.264;11.436;2023-03-25T07:37:28;95731.47;;;10.88;72.11
13604;BME280;24578;48.264;11.436;2023-03-25T07:40:49;95749.13;;;10.83;77.23
13604;BME280;24578;48.264;11.436;2023-03-25T07:44:11;95738.31;;;12.93;65.76
13604;BME280;24578;48.264;11.436;2023-03-25T07:47:34;95738.19;;;13.72;60.99
13604;BME280;24578;48.264;11.436;2023-03-25T07:50:56;95735.28;;;12.49;62.48
13604;BME280;24578;48.264;11.436;2023-03-25T07:54:18;95746.69;;;11.24;69.01
13604;BME280;24578;48.264;11.436;2023-03-25T07:57:42;95755.81;;;10.64;74.23
13604;BME280;24578;48.264;11.436;2023-03-25T08:01:04;95737.66;;;12.82;63.96
13604;BME280;24578;48.264;11.436;2023-03-25T08:04:26;95733.09;;;15.53;54.14
13604;BME280;24578;48.264;11.436;2023-03-25T08:07:49;95718.34;;;16.05;50.07
13604;BME280;24578;48.264;11.436;2023-03-25T08:11:11;95719.78;;;15.91;49.96
13604;BME280;24578;48.264;11.436;2023-03-25T08:14:33;95713.63;;;17.01;45.96
13604;BME280;24578;48.264;11.436;2023-03-25T08:17:55;95711.94;;;18.37;41.90
13604;BME280;24578;48.264;11.436;2023-03-25T08:21:19;95705.75;;;17.99;43.00
13604;BME280;24578;48.264;11.436;2023-03-25T08:24:46;95711.69;;;18.24;41.54
13604;BME280;24578;48.264;11.436;2023-03-25T08:28:08;95711.38;;;18.59;40.84
13604;BME280;24578;48.264;11.436;2023-03-25T08:31:31;95715.84;;;17.62;42.79
13604;BME280;24578;48.264;11.436;2023-03-25T08:34:53;95711.34;;;16.05;46.75
13604;BME280;24578;48.264;11.436;2023-03-25T08:38:15;95722.09;;;14.60;52.02
13604;BME280;24578;48.264;11.436;2023-03-25T08:41:38;95727.38;;;14.05;53.93
13604;BME280;24578;48.264;11.436;2023-03-25T08:45:00;95731.09;;;12.97;59.05
13604;BME280;24578;48.264;11.436;2023-03-25T08:48:23;95730.25;;;12.57;66.42
13604;BME280;24578;48.264;11.436;2023-03-25T08:51:45;95736.34;;;11.03;70.74
13604;BME280;24578;48.264;11.436;2023-03-25T08:55:08;95747.44;;;10.72;74.72
13604;BME280;24578;48.264;11.436;2023-03-25T08:58:30;95745.75;;;10.39;76.16
13604;BME280;24578;48.264;11.436;2023-03-25T09:01:52;95752.34;;;10.31;77.35
13604;BME280;24578;48.264;11.436;2023-03-25T09:05:14;95756.97;;;9.94;82.43
13604;BME280;24578;48.264;11.436;2023-03-25T09:08:36;95758.22;;;10.22;83.03
13604;BME280;24578;48.264;11.436;2023-03-25T09:11:58;95744.56;;;10.75;81.50
13604;BME280;24578;48.264;11.436;2023-03-25T09:15:20;95739.66;;;12.29;71.16
13604;BME280;24578;48.264;11.436;2023-03-25T09:18:42;95727.19;;;13.50;60.49
13604;BME280;24578;48.264;11.436;2023-03-25T09:22:04;95714.16;;;14.80;54.91
13604;BME280;24578;48.264;11.436;2023-03-25T09:25:26;95703.81;;;15.94;50.38
13604;BME280;24578;48.264;11.436;2023-03-25T09:28:48;95693.97;;;15.88;47.02
13604;BME280;24578;48.264;11.436;2023-03-25T09:32:10;95702.28;;;14.31;51.47
13604;BME280;24578;48.264;11.436;2023-03-25T09:35:32;95704.03;;;13.85;56.49
13604;BME280;24578;48.264;11.436;2023-03-25T09:38:54;95705.03;;;14.30;54.90
13604;BME280;24578;48.264;11.436;2023-03-25T09:45:51;95692.06;;;15.63;49.10
13604;BME280;24578;48.264;11.436;2023-03-25T09:49:19;95681.13;;;15.68;47.20
13604;BME280;24578;48.264;11.436;2023-03-25T09:56:24;95674.91;;;15.00;51.02
13604;BME280;24578;48.264;11.436;2023-03-25T09:59:50;95681.09;;;14.44;49.13
13604;BME280;24578;48.264;11.436;2023-03-25T10:03:26;95686.09;;;14.10;52.54
13604;BME280;24578;48.264;11.436;2023-03-25T10:14:33;95684.91;;;13.48;53.84
13604;BME280;24578;48.264;11.436;2023-03-25T10:22:17;95673.97;;;12.77;58.16
13604;BME280;24578;48.264;11.436;2023-03-25T10:25:46;95674.00;;;13.25;55.06
13604;BME280;24578;48.264;11.436;2023-03-25T10:29:20;95662.06;;;13.32;54.94
13604;BME280;24578;48.264;11.436;2023-03-25T10:32:47;95666.31;;;12.66;58.55
13604;BME280;24578;48.264;11.436;2023-03-25T10:36:16;95660.53;;;12.82;66.22
13604;BME280;24578;48.264;11.436;2023-03-25T10:39:41;95664.34;;;13.07;61.04
13604;BME280;24578;48.264;11.436;2023-03-25T10:50:16;95658.94;;;12.22;62.76
13604;BME280;24578;48.264;11.436;2023-03-25T10:53:41;95649.13;;;13.22;56.12
13604;BME280;24578;48.264;11.436;2023-03-25T10:57:09;95630.66;;;14.27;51.98
13604;BME280;24578;48.264;11.436;2023-03-25T11:00:33;95626.56;;;14.61;50.00
13604;BME280;24578;48.264;11.436;2023-03-25T11:03:56;95634.81;;;15.27;48.29
13604;BME280;24578;48.264;11.436;2023-03-25T11:07:31;95658.53;;;15.16;47.95
13604;BME280;24578;48.264;11.436;2023-03-25T11:10:54;95627.72;;;15.11;48.07
13604;BME280;24578;48.264;11.436;2023-03-25T11:14:23;95633.69;;;14.77;49.18
13604;BME280;24578;48.264;11.436;2023-03-25T11:17:47;95629.34;;;15.81;47.04
13604;BME280;24578;48.264;11.436;2023-03-25T11:21:17;95608.72;;;16.05;44.43
13604;BME280;24578;48.264;11.436;2023-03-25T11:24:42;95601.06;;;15.60;45.27
13604;BME280;24578;48.264;11.436;2023-03-25T11:28:15;95597.66;;;16.61;43.57
13604;BME280;24578;48.264;11.436;2023-03-25T11:31:40;95595.69;;;16.71;43.72
13604;BME280;24578;48.264;11.436;2023-03-25T11:35:22;95587.97;;;15.87;43.95
13604;BME280;24578;48.264;11.436;2023-03-25T11:38:46;95586.78;;;15.30;46.81
13604;BME280;24578;48.264;11.436;2023-03-25T11:45:42;95581.31;;;15.15;47.49
13604;BME280;24578;48.264;11.436;2023-03-25T11:49:09;95575.28;;;14.61;50.83
13604;BME280;24578;48.264;11.436;2023-03-25T11:52:44;95566.94;;;15.02;48.72
13604;BME280;24578;48.264;11.436;2023-03-25T11:56:14;95569.31;;;15.81;45.15
13604;BME280;24578;48.264;11.436;2023-03-25T11:59:43;95566.88;;;15.72;44.23
13604;BME280;24578;48.264;11.436;2023-03-25T12:03:21;95576.19;;;15.82;45.73
13604;BME280;24578;48.264;11.436;2023-03-25T12:10:32;95561.69;;;15.29;46.24
13604;BME280;24578;48.264;11.436;2023-03-25T12:26:08;95557.53;;;13.38;52.10
13604;BME280;24578;48.264;11.436;2023-03-25T12:36:48;95558.97;;;12.95;55.02
13604;BME280;24578;48.264;11.436;2023-03-25T12:44:13;95537.25;;;13.52;53.94
13604;BME280;24578;48.264;11.436;2023-03-25T12:48:03;95542.75;;;14.03;50.25
13604;BME280;24578;48.264;11.436;2023-03-25T12:51:33;95543.22;;;13.98;51.55
13604;BME280;24578;48.264;11.436;2023-03-25T13:06:37;95561.72;;;13.95;48.72
13604;BME280;24578;48.264;11.436;2023-03-25T13:10:18;95548.44;;;14.43;47.21
13604;BME280;24578;48.264;11.436;2023-03-25T13:13:44;95556.88;;;14.37;48.49
13604;BME280;24578;48.264;11.436;2023-03-25T13:17:27;95540.59;;;14.79;48.84
13604;BME280;24578;48.264;11.436;2023-03-25T13:24:35;95549.88;;;14.82;47.59
13604;BME280;24578;48.264;11.436;2023-03-25T13:28:03;95546.41;;;14.55;47.96
13604;BME280;24578;48.264;11.436;2023-03-25T13:31:34;95547.94;;;15.18;45.65
13604;BME280;24578;48.264;11.436;2023-03-25T13:35:14;95550.06;;;13.99;49.56
13604;BME280;24578;48.264;11.436;2023-03-25T13:38:48;95539.66;;;14.62;49.27
13604;BME280;24578;48.264;11.436;2023-03-25T13:42:38;95522.53;;;15.72;45.00
13604;BME280;24578;48.264;11.436;2023-03-25T13:46:08;95527.75;;;15.20;44.84
13604;BME280;24578;48.264;11.436;2023-03-25T13:49:41;95531.38;;;14.67;45.32
13604;BME280;24578;48.264;11.436;2023-03-25T13:53:47;95537.28;;;14.69;47.97
13604;BME280;24578;48.264;11.436;2023-03-25T14:01:20;95517.91;;;15.41;45.93
13604;BME280;24578;48.264;11.436;2023-03-25T14:12:30;95534.66;;;14.69;46.13
13604;BME280;24578;48.264;11.436;2023-03-25T14:16:13;95524.00;;;14.36;49.33
13604;BME280;24578;48.264;11.436;2023-03-25T14:19:41;95535.81;;;13.30;51.48
13604;BME280;24578;48.264;11.436;2023-03-25T14:23:07;95548.50;;;13.15;52.70
13604;BME280;24578;48.264;11.436;2023-03-25T14:26:34;95545.91;;;13.43;53.00
13604;BME280;24578;48.264;11.436;2023-03-25T14:37:27;95541.88;;;13.58;53.10
13604;BME280;24578;48.264;11.436;2023-03-25T14:40:50;95547.19;;;13.29;52.67
13604;BME280;24578;48.264;11.436;2023-03-25T14:44:19;95552.69;;;12.88;54.37
13604;BME280;24578;48.264;11.436;2023-03-25T14:47:54;95551.41;;;13.02;55.03
13604;BME280;24578;48.264;11.436;2023-03-25T14:55:14;95548.31;;;12.31;57.72
13604;BME280;24578;48.264;11.436;2023-03-25T14:58:38;95556.06;;;11.92;56.44
13604;BME280;24578;48.264;11.436;2023-03-25T15:05:52;95543.28;;;11.30;61.61
13604;BME280;24578;48.264;11.436;2023-03-25T15:09:17;95543.13;;;11.21;62.48
13604;BME280;24578;48.264;11.436;2023-03-25T15:12:40;95569.03;;;11.21;64.63
13604;BME280;24578;48.264;11.436;2023-03-25T15:30:53;95567.47;;;8.34;100.00
13604;BME280;24578;48.264;11.436;2023-03-25T15:34:40;95559.59;;;8.48;100.00
13604;BME280;24578;48.264;11.436;2023-03-25T15:42:15;95562.53;;;8.78;100.00
13604;BME280;24578;48.264;11.436;2023-03-25T15:57:30;95596.44;;;8.84;100.00
13604;BME280;24578;48.264;11.436;2023-03-25T16:01:06;95599.03;;;8.84;100.00
13604;BME280;24578;48.264;11.436;2023-03-25T16:04:46;95584.69;;;8.69;100.00
13604;BME280;24578;48.264;11.436;2023-03-25T16:08:16;95582.81;;;8.60;100.00
13604;BME280;24578;48.264;11.436;2023-03-25T16:11:42;95573.81;;;8.88;100.00
13604;BME280;24578;48.264;11.436;2023-03-25T16:15:04;95567.94;;;9.09;100.00
13604;BME280;24578;48.264;11.436;2023-03-25T16:18:27;95584.38;;;9.08;100.00
13604;BME280;24578;48.264;11.436;2023-03-25T16:21:51;95586.13;;;8.96;100.00
13604;BME280;24578;48.264;11.436;2023-03-25T16:25:29;95587.28;;;8.80;100.00
13604;BME280;24578;48.264;11.436;2023-03-25T16:29:05;95589.50;;;8.74;100.00
13604;BME280;24578;48.264;11.436;2023-03-25T16:32:33;95589.63;;;8.72;100.00
13604;BME280;24578;48.264;11.436;2023-03-25T16:36:05;95602.75;;;8.69;100.00
13604;BME280;24578;48.264;11.436;2023-03-25T16:39:32;95606.63;;;8.75;100.00
13604;BME280;24578;48.264;11.436;2023-03-25T16:43:03;95597.03;;;8.77;100.00
13604;BME280;24578;48.264;11.436;2023-03-25T16:46:26;95617.09;;;8.73;100.00
13604;BME280;24578;48.264;11.436;2023-03-25T16:49:51;95622.59;;;8.80;100.00
13604;BME280;24578;48.264;11.436;2023-03-25T16:53:16;95629.25;;;8.60;100.00
13604;BME280;24578;48.264;11.436;2023-03-25T16:56:39;95606.97;;;7.99;100.00
13604;BME280;24578;48.264;11.436;2023-03-25T17:00:14;95611.41;;;7.72;100.00
13604;BME280;24578;48.264;11.436;2023-03-25T17:03:42;95637.66;;;7.53;100.00
13604;BME280;24578;48.264;11.436;2023-03-25T17:07:10;95654.56;;;7.31;100.00
13604;BME280;24578;48.264;11.436;2023-03-25T17:10:47;95630.78;;;7.15;100.00
13604;BME280;24578;48.264;11.436;2023-03-25T17:14:17;95631.19;;;7.09;100.00
13604;BME280;24578;48.264;11.436;2023-03-25T17:17:46;95642.53;;;7.06;100.00
13604;BME280;24578;48.264;11.436;2023-03-25T17:21:22;95642.97;;;7.00;100.00
13604;BME280;24578;48.264;11.436;2023-03-25T17:24:56;95635.44;;;7.10;100.00
13604;BME280;24578;48.264;11.436;2023-03-25T17:28:38;95645.91;;;7.20;100.00
13604;BME280;24578;48.264;11.436;2023-03-25T17:32:01;95640.97;;;7.29;100.00
13604;BME280;24578;48.264;11.436;2023-03-25T17:35:25;95642.63;;;7.30;100.00
13604;BME280;24578;48.264;11.436;2023-03-25T17:38:51;95651.28;;;7.29;100.00
13604;BME280;24578;48.264;11.436;2023-03-25T17:42:24;95645.91;;;7.20;100.00
13604;BME280;24578;48.264;11.436;2023-03-25T17:45:47;95641.41;;;7.10;100.00
13604;BME280;24578;48.264;11.436;2023-03-25T17:49:14;95660.66;;;7.05;100.00
13604;BME280;24578;48.264;11.436;2023-03-25T17:52:37;95664.56;;;7.23;100.00
13604;BME280;24578;48.264;11.436;2023-03-25T17:55:59;95664.25;;;7.15;100.00
13604;BME280;24578;48.264;11.436;2023-03-25T17:59:24;95658.59;;;7.10;100.00
13604;BME280;24578;48.264;11.436;2023-03-25T18:02:46;95671.69;;;7.07;100.00
13604;BME280;24578;48.264;11.436;2023-03-25T18:06:10;95673.94;;;6.98;100.00
13604;BME280;24578;48.264;11.436;2023-03-25T18:09:32;95683.63;;;7.08;100.00
13604;BME280;24578;48.264;11.436;2023-03-25T18:12:54;95706.34;;;7.01;100.00
13604;BME280;24578;48.264;11.436;2023-03-25T18:16:19;95704.91;;;7.10;100.00
13604;BME280;24578;48.264;11.436;2023-03-25T18:19:41;95703.38;;;7.20;100.00
13604;BME280;24578;48.264;11.436;2023-03-25T18:23:03;95699.97;;;7.20;100.00
13604;BME280;24578;48.264;11.436;2023-03-25T18:26:24;95690.13;;;7.13;100.00
13604;BME280;24578;48.264;11.436;2023-03-25T18:29:46;95694.41;;;7.13;100.00
13604;BME280;24578;48.264;11.436;2023-03-25T18:33:08;95681.66;;;6.98;100.00
13604;BME280;24578;48.264;11.436;2023-03-25T18:36:30;95691.41;;;6.93;100.00
13604;BME280;24578;48.264;11.436;2023-03-25T18:39:57;95700.38;;;6.88;100.00
13604;BME280;24578;48.264;11.436;2023-03-25T18:43:20;95692.38;;;6.92;100.00
13604;BME280;24578;48.264;11.436;2023-03-25T18:46:42;95700.19;;;6.91;100.00
13604;BME280;24578;48.264;11.436;2023-03-25T18:50:34;95706.03;;;6.80;100.00
13604;BME280;24578;48.264;11.436;2023-03-25T18:53:57;95706.25;;;6.90;100.00
13604;BME280;24578;48.264;11.436;2023-03-25T18:57:18;95688.22;;;6.90;100.00
13604;BME280;24578;48.264;11.436;2023-03-25T19:00:46;95699.22;;;6.79;100.00
13604;BME280;24578;48.264;11.436;2023-03-25T19:04:08;95694.91;;;6.79;100.00
13604;BME280;24578;48.264;11.436;2023-03-25T19:07:30;95705.53;;;6.75;100.00
13604;BME280;24578;48.264;11.436;2023-03-25T19:10:52;95700.56;;;6.72;100.00
13604;BME280;24578;48.264;11.436;2023-03-25T19:14:15;95708.09;;;6.75;100.00
13604;BME280;24578;48.264;11.436;2023-03-25T19:17:36;95694.09;;;6.79;100.00
13604;BME280;24578;48.264;11.436;2023-03-25T19:20:59;95701.81;;;6.79;100.00
13604;BME280;24578;48.264;11.436;2023-03-25T19:24:21;95695.53;;;6.83;100.00
13604;BME280;24578;48.264;11.436;2023-03-25T19:27:43;95700.88;;;6.67;100.00
13604;BME280;24578;48.264;11.436;2023-03-25T19:31:05;95704.25;;;6.67;100.00
13604;BME280;24578;48.264;11.436;2023-03-25T19:34:27;95694.88;;;6.66;100.00
13604;BME280;24578;48.264;11.436;2023-03-25T19:37:51;95688.28;;;6.62;100.00
13604;BME280;24578;48.264;11.436;2023-03-25T19:41:14;95698.81;;;6.72;100.00
13604;BME280;24578;48.264;11.436;2023-03-25T19:44:36;95699.22;;;6.66;100.00
13604;BME280;24578;48.264;11.436;2023-03-25T19:47:58;95700.34;;;6.62;100.00
13604;BME280;24578;48.264;11.436;2023-03-25T19:51:20;95697.56;;;6.65;100.00
13604;BME280;24578;48.264;11.436;2023-03-25T19:54:41;95696.31;;;6.58;100.00
13604;BME280;24578;48.264;11.436;2023-03-25T19:58:03;95700.84;;;6.54;100.00
13604;BME280;24578;48.264;11.436;2023-03-25T20:01:27;95711.22;;;6.52;100.00
13604;BME280;24578;48.264;11.436;2023-03-25T20:04:50;95703.72;;;6.49;100.00
13604;BME280;24578;48.264;11.436;2023-03-25T20:08:12;95687.44;;;6.36;100.00
13604;BME280;24578;48.264;11.436;2023-03-25T20:11:33;95686.88;;;6.31;100.00
13604;BME280;24578;48.264;11.436;2023-03-25T20:14:56;95696.13;;;6.33;100.00
13604;BME280;24578;48.264;11.436;2023-03-25T20:18:17;95679.56;;;6.24;100.00
13604;BME280;24578;48.264;11.436;2023-03-25T20:21:39;95693.44;;;6.22;100.00
13604;BME280;24578;48.264;11.436;2023-03-25T20:25:02;95689.75;;;6.26;100.00
13604;BME280;24578;48.264;11.436;2023-03-25T20:28:24;95688.19;;;6.23;100.00
13604;BME280;24578;48.264;11.436;2023-03-25T20:31:45;95695.19;;;6.21;100.00
13604;BME280;24578;48.264;11.436;2023-03-25T20:35:08;95700.16;;;6.10;100.00